Norbank — PGIS — position and weather

sailwx.info

Track history (hours):
 
Tides and Currents Weather Stations Pressure Air Temp Water Temp Dewpoint Dewpoint Depression Visibility Wind Speed Wind Dir Waves Ship Positions

Norbank

Operator: P & O Ferries

Last reported at 2019-Feb-23 23:34 UTC. Time now 2019-Feb-24 00:15 UTC.
Position N 53°33' W 003°29'.

Length 167 m; draft 5.6 m.

Type: Ship (hazmat cat A). MMSI: 246213000.

Date/timePositionNaut miles runAvg speedWind from/ knotsBaromVisibWave heightAir tempDewpointWater temp
2019-Feb-23 23:34N 53°33' W 003°29'116.9
2019-Feb-23 23:30N 53°33' W 003°27'816.3
2019-Feb-23 23:01N 53°31' W 003°14'611.3
2019-Feb-23 22:31N 53°29' W 003°05'3 6.3
2019-Feb-23 22:00N 53°27' W 003°01'0 0.5
2019-Feb-23 21:31N 53°27' W 003°01'0 0.4
2019-Feb-23 20:57N 53°27' W 003°01'0 0.0
2019-Feb-23 20:30N 53°27' W 003°01'0 0.0
2019-Feb-23 19:59N 53°27' W 003°01'0 0.0
2019-Feb-23 19:29N 53°27' W 003°01'0 0.0
2019-Feb-23 18:59N 53°27' W 003°01'0 0.0
2019-Feb-23 18:26N 53°27' W 003°01'0 0.0
2019-Feb-23 17:59N 53°27' W 003°01'0 0.0
2019-Feb-23 17:28N 53°27' W 003°01'0 0.0
2019-Feb-23 16:58N 53°27' W 003°01'0 0.9
2019-Feb-23 16:30N 53°27' W 003°01'1 1.2
2019-Feb-23 16:00N 53°27' W 003°02'714.0
2019-Feb-23 15:30N 53°32' W 003°11'917.3
2019-Feb-23 15:00N 53°31' W 003°26'918.0
2019-Feb-23 14:30N 53°31' W 003°41'816.8
2019-Feb-23 14:00N 53°32' W 003°55'7517.9
2019-Feb-23 09:49N 53°21' W 006°00'515.2
2019-Feb-23 09:30N 53°21' W 006°08'3 6.1
2019-Feb-23 09:00N 53°21' W 006°13'0 0.0
2019-Feb-23 08:30N 53°21' W 006°13'0 0.0
2019-Feb-23 08:00N 53°21' W 006°13'0 0.0
2019-Feb-23 07:30N 53°21' W 006°13'0 0.0
2019-Feb-23 07:00N 53°21' W 006°13'0 0.0
2019-Feb-23 06:30N 53°21' W 006°13'0 0.0
2019-Feb-23 06:00N 53°21' W 006°13'0 0.0
2019-Feb-23 05:30N 53°21' W 006°13'0 0.3
2019-Feb-23 05:00N 53°21' W 006°13'5 9.3
2019-Feb-23 04:30N 53°20' W 006°05'918.5
2019-Feb-23 04:00N 53°24' W 005°51'2319.7
2019-Feb-23 02:51N 53°30' W 005°14'820.6
2019-Feb-23 02:29N 53°32' W 005°01'5419.6
2019-Feb-22 23:44N 53°33' W 003°31'518.9
2019-Feb-22 23:29N 53°33' W 003°23'816.6
2019-Feb-22 23:00N 53°32' W 003°10'612.7
2019-Feb-22 22:31N 53°27' W 003°02'1 1.3
2019-Feb-22 22:00N 53°27' W 003°01'0 0.7
2019-Feb-22 21:31N 53°27' W 003°01'0 0.3
2019-Feb-22 21:00N 53°27' W 003°01'0 0.0
2019-Feb-22 20:30N 53°27' W 003°01'0 0.0
2019-Feb-22 20:00N 53°27' W 003°01'0 0.0
2019-Feb-22 19:30N 53°27' W 003°01'0 0.0
2019-Feb-22 18:59N 53°27' W 003°01'0 0.0
2019-Feb-22 18:29N 53°27' W 003°01'0 0.0
2019-Feb-22 17:59N 53°27' W 003°01'0 0.0
2019-Feb-22 17:29N 53°27' W 003°01'0 0.0
2019-Feb-22 16:59N 53°27' W 003°01'0 0.9
2019-Feb-22 16:30N 53°27' W 003°01'1 2.6
2019-Feb-22 16:01N 53°28' W 003°03'713.3
2019-Feb-22 15:30N 53°31' W 003°12'917.6
2019-Feb-22 15:00N 53°31' W 003°27'918.7
2019-Feb-22 14:30N 53°31' W 003°43'1119.2
2019-Feb-22 13:56N 53°33' W 004°01'2518.9
2019-Feb-22 12:35N 53°37' W 004°43'4518.9
2019-Feb-22 10:11N 53°22' W 005°55'319.0
2019-Feb-22 10:00N 53°21' W 006°00'713.1
2019-Feb-22 09:30N 53°21' W 006°11'1 1.9
2019-Feb-22 08:58N 53°21' W 006°13'0 0.0
2019-Feb-22 08:28N 53°21' W 006°13'0 0.0
2019-Feb-22 07:58N 53°21' W 006°13'0 0.0
2019-Feb-22 07:28N 53°21' W 006°13'0 0.0
2019-Feb-22 06:57N 53°21' W 006°13'0 0.0
2019-Feb-22 06:30N 53°21' W 006°13'0 0.0
2019-Feb-22 05:57N 53°21' W 006°13'0 0.0
2019-Feb-22 05:30N 53°21' W 006°13'1 2.6
2019-Feb-22 05:00N 53°21' W 006°11'4 8.1
2019-Feb-22 04:30N 53°20' W 006°04'713.1
2019-Feb-22 04:00N 53°23' W 005°54'8818.2
2019-Feb-21 23:11N 53°34' W 003°28'317.5
2019-Feb-21 23:00N 53°33' W 003°23'816.7
2019-Feb-21 22:31N 53°32' W 003°09'713.6
2019-Feb-21 22:00N 53°27' W 003°01'0 0.4
2019-Feb-21 21:30N 53°27' W 003°01'0 0.7
2019-Feb-21 20:56N 53°27' W 003°01'0 0.0
2019-Feb-21 20:29N 53°27' W 003°01'0 0.0
2019-Feb-21 20:00N 53°27' W 003°01'0 0.0
2019-Feb-21 19:28N 53°27' W 003°01'0 0.0
2019-Feb-21 18:58N 53°27' W 003°01'0 0.0
2019-Feb-21 18:28N 53°27' W 003°01'0 0.0
2019-Feb-21 17:58N 53°27' W 003°01'0 0.0
2019-Feb-21 17:30N 53°27' W 003°01'0 0.0
2019-Feb-21 17:00N 53°27' W 003°01'0 0.9
2019-Feb-21 16:30N 53°27' W 003°01'0 0.3
2019-Feb-21 16:00N 53°27' W 003°01'713.3
2019-Feb-21 15:30N 53°32' W 003°09'816.9
2019-Feb-21 15:00N 53°31' W 003°23'918.5
2019-Feb-21 14:30N 53°31' W 003°38'918.3
2019-Feb-21 14:00N 53°33' W 003°54'918.7
2019-Feb-21 13:30N 53°34' W 004°09'6619.8
2019-Feb-21 10:10N 53°22' W 005°58'319.5
2019-Feb-21 10:01N 53°20' W 006°03'611.5
2019-Feb-21 09:30N 53°21' W 006°12'0 0.9
2019-Feb-21 09:00N 53°21' W 006°13'0 0.0
2019-Feb-21 08:30N 53°21' W 006°13'0 0.0
2019-Feb-21 08:00N 53°21' W 006°13'0 0.0
2019-Feb-21 07:29N 53°21' W 006°13'0 0.0
2019-Feb-21 06:59N 53°21' W 006°13'0 0.0
2019-Feb-21 06:29N 53°21' W 006°13'0 0.0
2019-Feb-21 05:59N 53°21' W 006°13'0 0.0
2019-Feb-21 05:29N 53°21' W 006°13'0 0.3
2019-Feb-21 05:00N 53°21' W 006°13'3 6.6
2019-Feb-21 04:30N 53°20' W 006°07'816.6
2019-Feb-21 04:00N 53°23' W 005°54'8517.5
2019-Feb-20 23:10N 53°33' W 003°33'317.7
2019-Feb-20 23:00N 53°33' W 003°28'917.4
2019-Feb-20 22:30N 53°31' W 003°14'714.8
2019-Feb-20 22:00N 53°28' W 003°03'1 2.6
2019-Feb-20 21:30N 53°27' W 003°01'0 0.8
2019-Feb-20 20:58N 53°27' W 003°01'0 0.0
2019-Feb-20 20:28N 53°27' W 003°01'0 0.0
2019-Feb-20 20:00N 53°27' W 003°01'0 0.0
2019-Feb-20 19:30N 53°27' W 003°01'0 0.0
2019-Feb-20 19:00N 53°27' W 003°01'0 0.0
2019-Feb-20 18:30N 53°27' W 003°01'0 0.0
2019-Feb-20 18:00N 53°27' W 003°01'0 0.0
2019-Feb-20 17:29N 53°27' W 003°01'0 0.0
2019-Feb-20 17:00N 53°27' W 003°01'0 0.9
2019-Feb-20 16:30N 53°27' W 003°01'2 3.4
2019-Feb-20 16:00N 53°28' W 003°03'612.4
2019-Feb-20 15:31N 53°31' W 003°12'917.6
2019-Feb-20 15:01N 53°31' W 003°27'1018.6
2019-Feb-20 14:30N 53°31' W 003°43'7918.7
2019-Feb-20 10:16N 53°22' W 005°55'519.6
2019-Feb-20 10:01N 53°20' W 006°03'611.4
2019-Feb-20 09:30N 53°21' W 006°12'0 0.7
2019-Feb-20 08:58N 53°21' W 006°13'0 0.0
2019-Feb-20 08:30N 53°21' W 006°13'0 0.0
2019-Feb-20 08:00N 53°21' W 006°13'0 0.0
2019-Feb-20 07:30N 53°21' W 006°13'0 0.0
2019-Feb-20 07:00N 53°21' W 006°13'0 0.0
2019-Feb-20 06:26N 53°21' W 006°13'0 0.0
2019-Feb-20 05:59N 53°21' W 006°13'0 0.0
2019-Feb-20 05:29N 53°21' W 006°13'0 0.2
2019-Feb-20 05:01N 53°21' W 006°13'4 8.6
2019-Feb-20 04:30N 53°20' W 006°06'815.9
2019-Feb-20 04:00N 53°23' W 005°54'8618.1
2019-Feb-19 23:15N 53°33' W 003°30'518.3
2019-Feb-19 23:01N 53°32' W 003°23'815.1
2019-Feb-19 22:30N 53°32' W 003°10'612.7
2019-Feb-19 22:00N 53°27' W 003°02'1 1.6
2019-Feb-19 21:31N 53°27' W 003°01'0 0.8
2019-Feb-19 21:01N 53°27' W 003°01'0 0.0
2019-Feb-19 20:30N 53°27' W 003°01'0 0.0
2019-Feb-19 20:01N 53°27' W 003°01'0 0.0
2019-Feb-19 19:30N 53°27' W 003°01'0 0.0
2019-Feb-19 19:01N 53°27' W 003°01'0 0.0
2019-Feb-19 18:30N 53°27' W 003°01'0 0.0
2019-Feb-19 18:00N 53°27' W 003°01'0 0.0
2019-Feb-19 17:31N 53°27' W 003°01'0 0.2
2019-Feb-19 17:00N 53°27' W 003°01'0 0.8
2019-Feb-19 16:31N 53°27' W 003°01'2 3.6
2019-Feb-19 16:00N 53°28' W 003°04'611.8
2019-Feb-19 15:31N 53°31' W 003°12'917.1
2019-Feb-19 15:00N 53°32' W 003°26'1018.8
2019-Feb-19 14:30N 53°32' W 003°42'7818.7
2019-Feb-19 10:20N 53°22' W 005°52'619.6
2019-Feb-19 10:00N 53°20' W 006°03'611.4
2019-Feb-19 09:30N 53°21' W 006°12'1 1.1
2019-Feb-19 08:59N 53°21' W 006°13'0 0.0
2019-Feb-19 08:28N 53°21' W 006°13'0 0.0
2019-Feb-19 07:55N 53°21' W 006°13'0 0.0
2019-Feb-19 07:28N 53°21' W 006°13'0 0.0
2019-Feb-19 06:58N 53°21' W 006°13'0 0.0
2019-Feb-19 06:28N 53°21' W 006°13'0 0.0
2019-Feb-19 06:00N 53°21' W 006°13'0 0.0
2019-Feb-19 05:30N 53°21' W 006°13'0 0.5
2019-Feb-19 05:00N 53°21' W 006°13'5 9.4
2019-Feb-19 04:31N 53°20' W 006°05'815.9
2019-Feb-19 04:01N 53°23' W 005°53'8716.7
2019-Feb-18 22:50N 53°33' W 003°28'516.3
2019-Feb-18 22:31N 53°32' W 003°20'816.1
2019-Feb-18 22:00N 53°31' W 003°06'5 9.7
2019-Feb-18 21:30N 53°27' W 003°01'0 0.9
2019-Feb-18 21:01N 53°27' W 003°01'0 0.0
2019-Feb-18 20:30N 53°27' W 003°01'0 0.0
2019-Feb-18 20:00N 53°27' W 003°01'0 0.0
2019-Feb-18 19:29N 53°27' W 003°01'0 0.0
2019-Feb-18 18:56N 53°27' W 003°01'0 0.0
2019-Feb-18 18:29N 53°27' W 003°01'0 0.0
2019-Feb-18 17:59N 53°27' W 003°01'0 0.0
2019-Feb-18 17:28N 53°27' W 003°01'0 0.1
2019-Feb-18 16:55N 53°27' W 003°01'0 0.9
2019-Feb-18 16:28N 53°27' W 003°01'0 0.2
2019-Feb-18 16:00N 53°27' W 003°01'510.1
2019-Feb-18 15:30N 53°31' W 003°06'714.1
2019-Feb-18 15:00N 53°31' W 003°18'917.0
2019-Feb-18 14:30N 53°31' W 003°33'8617.1
2019-Feb-18 09:30N 53°22' W 005°56'816.3
2019-Feb-18 09:00N 53°21' W 006°09'3 5.2
2019-Feb-18 08:30N 53°21' W 006°13'0 0.0
2019-Feb-18 08:00N 53°21' W 006°13'0 0.0
2019-Feb-18 07:29N 53°21' W 006°13'0 0.0
2019-Feb-18 06:59N 53°21' W 006°13'0 0.0
2019-Feb-18 06:29N 53°21' W 006°13'0 0.0
2019-Feb-18 05:59N 53°21' W 006°13'0 0.0
2019-Feb-18 05:29N 53°21' W 006°13'0 0.7
2019-Feb-18 05:00N 53°21' W 006°13'5 9.8
2019-Feb-18 04:30N 53°20' W 006°04'816.9
2019-Feb-18 04:00N 53°24' W 005°51'8318.3
2019-Feb-17 23:29N 53°33' W 003°34'919.3
2019-Feb-17 23:00N 53°32' W 003°18'816.9
2019-Feb-17 22:30N 53°29' W 003°05'3 5.9
2019-Feb-17 22:01N 53°27' W 003°01'0 0.8
2019-Feb-17 21:29N 53°27' W 003°01'0 0.0
2019-Feb-17 20:59N 53°27' W 003°01'0 0.0
2019-Feb-17 20:29N 53°27' W 003°01'0 0.0
2019-Feb-17 19:59N 53°27' W 003°01'0 0.0
2019-Feb-17 19:28N 53°27' W 003°01'0 0.0
2019-Feb-17 18:58N 53°27' W 003°01'0 0.0
2019-Feb-17 18:28N 53°27' W 003°01'0 0.0
2019-Feb-17 17:58N 53°27' W 003°01'0 0.0
2019-Feb-17 17:31N 53°27' W 003°01'0 0.0
2019-Feb-17 17:00N 53°27' W 003°01'0 0.0
2019-Feb-17 16:30N 53°27' W 003°01'0 0.0
2019-Feb-17 16:00N 53°27' W 003°01'0 0.0
2019-Feb-17 15:27N 53°27' W 003°01'0 0.0
2019-Feb-17 14:59N 53°27' W 003°01'0 0.0
2019-Feb-17 14:29N 53°27' W 003°01'0 0.0
2019-Feb-17 13:59N 53°27' W 003°01'0 0.0
2019-Feb-17 13:29N 53°27' W 003°01'0 0.0
2019-Feb-17 12:59N 53°27' W 003°01'0 0.0
2019-Feb-17 12:25N 53°27' W 003°01'0 0.0
2019-Feb-17 11:58N 53°27' W 003°01'0 0.0
2019-Feb-17 11:28N 53°27' W 003°01'0 0.0
2019-Feb-17 10:58N 53°27' W 003°01'0 0.0
2019-Feb-17 10:30N 53°27' W 003°01'0 0.0
2019-Feb-17 10:00N 53°27' W 003°01'0 0.0
2019-Feb-17 09:30N 53°27' W 003°01'0 0.0
2019-Feb-17 09:00N 53°27' W 003°01'0 0.0
2019-Feb-17 08:30N 53°27' W 003°01'0 0.0
2019-Feb-17 07:59N 53°27' W 003°01'0 0.0
2019-Feb-17 07:26N 53°27' W 003°01'0 0.0
2019-Feb-17 06:59N 53°27' W 003°01'0 0.0
2019-Feb-17 06:29N 53°27' W 003°01'0 0.0
2019-Feb-17 05:59N 53°27' W 003°01'0 0.0
2019-Feb-17 05:30N 53°27' W 003°01'0 0.9
2019-Feb-17 05:00N 53°27' W 003°01'4 7.2
2019-Feb-17 04:31N 53°30' W 003°05'815.9
2019-Feb-17 04:00N 53°31' W 003°18'917.6
2019-Feb-17 03:30N 53°31' W 003°33'8818.2
2019-Feb-16 22:40N 53°21' W 005°60'316.5
2019-Feb-16 22:31N 53°20' W 006°04'510.5
2019-Feb-16 22:00N 53°21' W 006°13'0 0.5
2019-Feb-16 21:28N 53°21' W 006°13'0 0.0
2019-Feb-16 20:58N 53°21' W 006°13'0 0.0
2019-Feb-16 20:28N 53°21' W 006°13'0 0.0
2019-Feb-16 19:58N 53°21' W 006°13'0 0.0
2019-Feb-16 19:28N 53°21' W 006°13'0 0.3
2019-Feb-16 18:58N 53°21' W 006°13'0 0.0
2019-Feb-16 18:28N 53°21' W 006°13'0 0.0
2019-Feb-16 17:58N 53°21' W 006°13'0 0.0
2019-Feb-16 17:28N 53°21' W 006°13'0 0.0
2019-Feb-16 16:58N 53°21' W 006°13'0 0.0
2019-Feb-16 16:30N 53°21' W 006°13'0 0.0
2019-Feb-16 16:00N 53°21' W 006°13'0 0.0
2019-Feb-16 15:30N 53°21' W 006°13'0 0.0
2019-Feb-16 15:00N 53°21' W 006°13'0 0.0
2019-Feb-16 14:29N 53°21' W 006°13'0 0.0
2019-Feb-16 13:59N 53°21' W 006°13'0 0.3
2019-Feb-16 13:29N 53°21' W 006°13'0 0.0
2019-Feb-16 12:59N 53°21' W 006°13'0 0.0
2019-Feb-16 12:29N 53°21' W 006°13'0 0.0
2019-Feb-16 11:58N 53°21' W 006°13'0 0.0
2019-Feb-16 11:28N 53°21' W 006°13'0 0.0
2019-Feb-16 11:00N 53°21' W 006°13'1 2.8
2019-Feb-16 10:30N 53°21' W 006°11'714.9
2019-Feb-16 10:00N 53°22' W 005°58'1018.8
2019-Feb-16 09:29N 53°25' W 005°42'4219.4
2019-Feb-16 07:20N 53°35' W 004°34'3818.5
2019-Feb-16 05:18N 53°33' W 003°31'517.6
2019-Feb-16 05:00N 53°33' W 003°22'817.1
2019-Feb-16 04:30N 53°32' W 003°08'612.6
2019-Feb-16 04:00N 53°27' W 003°01'0 0.1
2019-Feb-16 03:30N 53°27' W 003°01'0 0.8
2019-Feb-16 02:58N 53°27' W 003°01'0 0.0
2019-Feb-16 02:28N 53°27' W 003°01'0 0.0
2019-Feb-16 01:58N 53°27' W 003°01'0 0.0
2019-Feb-16 01:28N 53°27' W 003°01'0 0.0
2019-Feb-16 00:57N 53°27' W 003°01'0 0.0
2019-Feb-16 00:30N 53°27' W 003°01'0 0.0
2019-Feb-16 00:00N 53°27' W 003°01'0 0.0
2019-Feb-15 23:30N 53°27' W 003°01'0 0.8
2019-Feb-15 22:58N 53°27' W 003°01'0 0.4
2019-Feb-15 22:30N 53°27' W 003°01'713.0
2019-Feb-15 22:00N 53°32' W 003°08'917.2
2019-Feb-15 21:30N 53°31' W 003°23'917.5
2019-Feb-15 21:00N 53°31' W 003°38'3417.4
2019-Feb-15 19:03N 53°35' W 004°34'5016.2
2019-Feb-15 15:57N 53°22' W 005°56'715.5
2019-Feb-15 15:30N 53°20' W 006°07'4 7.3
2019-Feb-15 15:00N 53°21' W 006°13'0 0.0
2019-Feb-15 14:30N 53°21' W 006°13'0 0.0
2019-Feb-15 13:59N 53°21' W 006°13'0 0.0
2019-Feb-15 13:29N 53°21' W 006°13'0 0.0
2019-Feb-15 12:59N 53°21' W 006°13'0 0.0
2019-Feb-15 12:29N 53°21' W 006°13'0 0.0
2019-Feb-15 11:58N 53°21' W 006°13'0 0.0
2019-Feb-15 11:28N 53°21' W 006°13'0 0.0
2019-Feb-15 11:00N 53°21' W 006°13'2 3.1
2019-Feb-15 10:30N 53°21' W 006°10'714.5
2019-Feb-15 10:00N 53°22' W 005°58'917.4
2019-Feb-15 09:30N 53°25' W 005°45'2517.4
2019-Feb-15 08:05N 53°31' W 005°05'317.7
2019-Feb-15 07:55N 53°32' W 004°60'819.1
2019-Feb-15 07:30N 53°34' W 004°47'1819.2
2019-Feb-15 06:35N 53°34' W 004°17'519.0
2019-Feb-15 06:21N 53°34' W 004°09'818.8
2019-Feb-15 05:55N 53°34' W 003°56'818.6
2019-Feb-15 05:30N 53°33' W 003°43'918.6
2019-Feb-15 05:01N 53°33' W 003°28'1018.0
2019-Feb-15 04:27N 53°32' W 003°11'716.0
2019-Feb-15 04:00N 53°27' W 003°02'0 0.9
2019-Feb-15 03:30N 53°27' W 003°01'0 0.8
2019-Feb-15 02:59N 53°27' W 003°01'0 0.0
2019-Feb-15 02:29N 53°27' W 003°01'0 0.0
2019-Feb-15 01:58N 53°27' W 003°01'0 0.0
2019-Feb-15 01:28N 53°27' W 003°01'0 0.0
2019-Feb-15 00:58N 53°27' W 003°01'0 0.0
2019-Feb-15 00:28N 53°27' W 003°01'0 0.0
2019-Feb-14 23:58N 53°27' W 003°01'0 0.0
2019-Feb-14 23:30N 53°27' W 003°01'0 0.4
2019-Feb-14 23:00N 53°27' W 003°01'0 0.8
2019-Feb-14 22:30N 53°27' W 003°01'510.9
2019-Feb-14 22:00N 53°31' W 003°07'816.3
2019-Feb-14 21:30N 53°31' W 003°21'714.9
2019-Feb-14 21:00N 53°31' W 003°33'1114.8
2019-Feb-14 20:16N 53°31' W 003°52'615.2
2019-Feb-14 19:51N 53°32' W 004°02'916.6
2019-Feb-14 19:19N 53°33' W 004°17'917.9
2019-Feb-14 18:48N 53°35' W 004°32'1018.1
2019-Feb-14 18:16N 53°34' W 004°48'518.4
2019-Feb-14 18:00N 53°33' W 004°56'1018.8
2019-Feb-14 17:27N 53°30' W 005°13'1218.9
2019-Feb-14 16:49N 53°26' W 005°32'1718.7
2019-Feb-14 15:55N 53°21' W 005°59'614.0
2019-Feb-14 15:30N 53°21' W 006°09'3 4.9
2019-Feb-14 14:58N 53°21' W 006°13'0 0.0
2019-Feb-14 14:28N 53°21' W 006°13'0 0.0
2019-Feb-14 13:58N 53°21' W 006°13'0 0.0
2019-Feb-14 13:28N 53°21' W 006°13'0 0.0
2019-Feb-14 12:58N 53°21' W 006°13'0 0.0
2019-Feb-14 12:30N 53°21' W 006°13'0 0.0
2019-Feb-14 12:00N 53°21' W 006°13'0 0.0
2019-Feb-14 11:30N 53°21' W 006°13'0 0.1
2019-Feb-14 11:00N 53°21' W 006°13'3 5.9
2019-Feb-14 10:30N 53°21' W 006°08'816.8
2019-Feb-14 10:00N 53°23' W 005°55'8620.4
2019-Feb-14 05:46N 53°33' W 003°30'519.1
2019-Feb-14 05:31N 53°32' W 003°22'816.3
2019-Feb-14 05:01N 53°32' W 003°09'714.3
2019-Feb-14 04:30N 53°26' W 003°01'0 0.3
2019-Feb-14 04:01N 53°27' W 003°01'1 0.9
2019-Feb-14 02:58N 53°27' W 003°01'0 0.0
2019-Feb-14 02:27N 53°27' W 003°01'0 0.0
2019-Feb-14 02:00N 53°27' W 003°01'0 0.0
2019-Feb-14 01:30N 53°27' W 003°01'0 0.0
2019-Feb-14 01:00N 53°27' W 003°01'0 0.0
2019-Feb-14 00:30N 53°27' W 003°01'0 0.0
2019-Feb-13 23:59N 53°27' W 003°01'  
Track history (hours):
 
Tides and Currents Weather Stations Pressure Air Temp Water Temp Dewpoint Dewpoint Depression Visibility Wind Speed Wind Dir Waves Ship Positions

Norbank

Operator: P & O Ferries

Last reported at 2019-Feb-23 23:34 UTC. Time now 2019-Feb-24 00:15 UTC.
Position N 53°33' W 003°29'.

Length 167 m; draft 5.6 m.

Type: Ship (hazmat cat A). MMSI: 246213000.

Date/timePositionNaut miles runAvg speedWind from/ knotsBaromVisibWave heightAir tempDewpointWater temp
2019-Feb-23 23:34N 53°33' W 003°29'116.9
2019-Feb-23 23:30N 53°33' W 003°27'816.3
2019-Feb-23 23:01N 53°31' W 003°14'611.3
2019-Feb-23 22:31N 53°29' W 003°05'3 6.3
2019-Feb-23 22:00N 53°27' W 003°01'0 0.5
2019-Feb-23 21:31N 53°27' W 003°01'0 0.4
2019-Feb-23 20:57N 53°27' W 003°01'0 0.0
2019-Feb-23 20:30N 53°27' W 003°01'0 0.0
2019-Feb-23 19:59N 53°27' W 003°01'0 0.0
2019-Feb-23 19:29N 53°27' W 003°01'0 0.0
2019-Feb-23 18:59N 53°27' W 003°01'0 0.0
2019-Feb-23 18:26N 53°27' W 003°01'0 0.0
2019-Feb-23 17:59N 53°27' W 003°01'0 0.0
2019-Feb-23 17:28N 53°27' W 003°01'0 0.0
2019-Feb-23 16:58N 53°27' W 003°01'0 0.9
2019-Feb-23 16:30N 53°27' W 003°01'1 1.2
2019-Feb-23 16:00N 53°27' W 003°02'714.0
2019-Feb-23 15:30N 53°32' W 003°11'917.3
2019-Feb-23 15:00N 53°31' W 003°26'918.0
2019-Feb-23 14:30N 53°31' W 003°41'816.8
2019-Feb-23 14:00N 53°32' W 003°55'7517.9
2019-Feb-23 09:49N 53°21' W 006°00'515.2
2019-Feb-23 09:30N 53°21' W 006°08'3 6.1
2019-Feb-23 09:00N 53°21' W 006°13'0 0.0
2019-Feb-23 08:30N 53°21' W 006°13'0 0.0
2019-Feb-23 08:00N 53°21' W 006°13'0 0.0
2019-Feb-23 07:30N 53°21' W 006°13'0 0.0
2019-Feb-23 07:00N 53°21' W 006°13'0 0.0
2019-Feb-23 06:30N 53°21' W 006°13'0 0.0
2019-Feb-23 06:00N 53°21' W 006°13'0 0.0
2019-Feb-23 05:30N 53°21' W 006°13'0 0.3
2019-Feb-23 05:00N 53°21' W 006°13'5 9.3
2019-Feb-23 04:30N 53°20' W 006°05'918.5
2019-Feb-23 04:00N 53°24' W 005°51'2319.7
2019-Feb-23 02:51N 53°30' W 005°14'820.6
2019-Feb-23 02:29N 53°32' W 005°01'5419.6
2019-Feb-22 23:44N 53°33' W 003°31'518.9
2019-Feb-22 23:29N 53°33' W 003°23'816.6
2019-Feb-22 23:00N 53°32' W 003°10'612.7
2019-Feb-22 22:31N 53°27' W 003°02'1 1.3
2019-Feb-22 22:00N 53°27' W 003°01'0 0.7
2019-Feb-22 21:31N 53°27' W 003°01'0 0.3
2019-Feb-22 21:00N 53°27' W 003°01'0 0.0
2019-Feb-22 20:30N 53°27' W 003°01'0 0.0
2019-Feb-22 20:00N 53°27' W 003°01'0 0.0
2019-Feb-22 19:30N 53°27' W 003°01'0 0.0
2019-Feb-22 18:59N 53°27' W 003°01'0 0.0
2019-Feb-22 18:29N 53°27' W 003°01'0 0.0
2019-Feb-22 17:59N 53°27' W 003°01'0 0.0
2019-Feb-22 17:29N 53°27' W 003°01'0 0.0
2019-Feb-22 16:59N 53°27' W 003°01'0 0.9
2019-Feb-22 16:30N 53°27' W 003°01'1 2.6
2019-Feb-22 16:01N 53°28' W 003°03'713.3
2019-Feb-22 15:30N 53°31' W 003°12'917.6
2019-Feb-22 15:00N 53°31' W 003°27'918.7
2019-Feb-22 14:30N 53°31' W 003°43'1119.2
2019-Feb-22 13:56N 53°33' W 004°01'2518.9
2019-Feb-22 12:35N 53°37' W 004°43'4518.9
2019-Feb-22 10:11N 53°22' W 005°55'319.0
2019-Feb-22 10:00N 53°21' W 006°00'713.1
2019-Feb-22 09:30N 53°21' W 006°11'1 1.9
2019-Feb-22 08:58N 53°21' W 006°13'0 0.0
2019-Feb-22 08:28N 53°21' W 006°13'0 0.0
2019-Feb-22 07:58N 53°21' W 006°13'0 0.0
2019-Feb-22 07:28N 53°21' W 006°13'0 0.0
2019-Feb-22 06:57N 53°21' W 006°13'0 0.0
2019-Feb-22 06:30N 53°21' W 006°13'0 0.0
2019-Feb-22 05:57N 53°21' W 006°13'0 0.0
2019-Feb-22 05:30N 53°21' W 006°13'1 2.6
2019-Feb-22 05:00N 53°21' W 006°11'4 8.1
2019-Feb-22 04:30N 53°20' W 006°04'713.1
2019-Feb-22 04:00N 53°23' W 005°54'8818.2
2019-Feb-21 23:11N 53°34' W 003°28'317.5
2019-Feb-21 23:00N 53°33' W 003°23'816.7
2019-Feb-21 22:31N 53°32' W 003°09'713.6
2019-Feb-21 22:00N 53°27' W 003°01'0 0.4
2019-Feb-21 21:30N 53°27' W 003°01'0 0.7
2019-Feb-21 20:56N 53°27' W 003°01'0 0.0
2019-Feb-21 20:29N 53°27' W 003°01'0 0.0
2019-Feb-21 20:00N 53°27' W 003°01'0 0.0
2019-Feb-21 19:28N 53°27' W 003°01'0 0.0
2019-Feb-21 18:58N 53°27' W 003°01'0 0.0
2019-Feb-21 18:28N 53°27' W 003°01'0 0.0
2019-Feb-21 17:58N 53°27' W 003°01'0 0.0
2019-Feb-21 17:30N 53°27' W 003°01'0 0.0
2019-Feb-21 17:00N 53°27' W 003°01'0 0.9
2019-Feb-21 16:30N 53°27' W 003°01'0 0.3
2019-Feb-21 16:00N 53°27' W 003°01'713.3
2019-Feb-21 15:30N 53°32' W 003°09'816.9
2019-Feb-21 15:00N 53°31' W 003°23'918.5
2019-Feb-21 14:30N 53°31' W 003°38'918.3
2019-Feb-21 14:00N 53°33' W 003°54'918.7
2019-Feb-21 13:30N 53°34' W 004°09'6619.8
2019-Feb-21 10:10N 53°22' W 005°58'319.5
2019-Feb-21 10:01N 53°20' W 006°03'611.5
2019-Feb-21 09:30N 53°21' W 006°12'0 0.9
2019-Feb-21 09:00N 53°21' W 006°13'0 0.0
2019-Feb-21 08:30N 53°21' W 006°13'0 0.0
2019-Feb-21 08:00N 53°21' W 006°13'0 0.0
2019-Feb-21 07:29N 53°21' W 006°13'0 0.0
2019-Feb-21 06:59N 53°21' W 006°13'0 0.0
2019-Feb-21 06:29N 53°21' W 006°13'0 0.0
2019-Feb-21 05:59N 53°21' W 006°13'0 0.0
2019-Feb-21 05:29N 53°21' W 006°13'0 0.3
2019-Feb-21 05:00N 53°21' W 006°13'3 6.6
2019-Feb-21 04:30N 53°20' W 006°07'816.6
2019-Feb-21 04:00N 53°23' W 005°54'8517.5
2019-Feb-20 23:10N 53°33' W 003°33'317.7
2019-Feb-20 23:00N 53°33' W 003°28'917.4
2019-Feb-20 22:30N 53°31' W 003°14'714.8
2019-Feb-20 22:00N 53°28' W 003°03'1 2.6
2019-Feb-20 21:30N 53°27' W 003°01'0 0.8
2019-Feb-20 20:58N 53°27' W 003°01'0 0.0
2019-Feb-20 20:28N 53°27' W 003°01'0 0.0
2019-Feb-20 20:00N 53°27' W 003°01'0 0.0
2019-Feb-20 19:30N 53°27' W 003°01'0 0.0
2019-Feb-20 19:00N 53°27' W 003°01'0 0.0
2019-Feb-20 18:30N 53°27' W 003°01'0 0.0
2019-Feb-20 18:00N 53°27' W 003°01'0 0.0
2019-Feb-20 17:29N 53°27' W 003°01'0 0.0
2019-Feb-20 17:00N 53°27' W 003°01'0 0.9
2019-Feb-20 16:30N 53°27' W 003°01'2 3.4
2019-Feb-20 16:00N 53°28' W 003°03'612.4
2019-Feb-20 15:31N 53°31' W 003°12'917.6
2019-Feb-20 15:01N 53°31' W 003°27'1018.6
2019-Feb-20 14:30N 53°31' W 003°43'7918.7
2019-Feb-20 10:16N 53°22' W 005°55'519.6
2019-Feb-20 10:01N 53°20' W 006°03'611.4
2019-Feb-20 09:30N 53°21' W 006°12'0 0.7
2019-Feb-20 08:58N 53°21' W 006°13'0 0.0
2019-Feb-20 08:30N 53°21' W 006°13'0 0.0
2019-Feb-20 08:00N 53°21' W 006°13'0 0.0
2019-Feb-20 07:30N 53°21' W 006°13'0 0.0
2019-Feb-20 07:00N 53°21' W 006°13'0 0.0
2019-Feb-20 06:26N 53°21' W 006°13'0 0.0
2019-Feb-20 05:59N 53°21' W 006°13'0 0.0
2019-Feb-20 05:29N 53°21' W 006°13'0 0.2
2019-Feb-20 05:01N 53°21' W 006°13'4 8.6
2019-Feb-20 04:30N 53°20' W 006°06'815.9
2019-Feb-20 04:00N 53°23' W 005°54'8618.1
2019-Feb-19 23:15N 53°33' W 003°30'518.3
2019-Feb-19 23:01N 53°32' W 003°23'815.1
2019-Feb-19 22:30N 53°32' W 003°10'612.7
2019-Feb-19 22:00N 53°27' W 003°02'1 1.6
2019-Feb-19 21:31N 53°27' W 003°01'0 0.8
2019-Feb-19 21:01N 53°27' W 003°01'0 0.0
2019-Feb-19 20:30N 53°27' W 003°01'0 0.0
2019-Feb-19 20:01N 53°27' W 003°01'0 0.0
2019-Feb-19 19:30N 53°27' W 003°01'0 0.0
2019-Feb-19 19:01N 53°27' W 003°01'0 0.0
2019-Feb-19 18:30N 53°27' W 003°01'0 0.0
2019-Feb-19 18:00N 53°27' W 003°01'0 0.0
2019-Feb-19 17:31N 53°27' W 003°01'0 0.2
2019-Feb-19 17:00N 53°27' W 003°01'0 0.8
2019-Feb-19 16:31N 53°27' W 003°01'2 3.6
2019-Feb-19 16:00N 53°28' W 003°04'611.8
2019-Feb-19 15:31N 53°31' W 003°12'917.1
2019-Feb-19 15:00N 53°32' W 003°26'1018.8
2019-Feb-19 14:30N 53°32' W 003°42'7818.7
2019-Feb-19 10:20N 53°22' W 005°52'619.6
2019-Feb-19 10:00N 53°20' W 006°03'611.4
2019-Feb-19 09:30N 53°21' W 006°12'1 1.1
2019-Feb-19 08:59N 53°21' W 006°13'0 0.0
2019-Feb-19 08:28N 53°21' W 006°13'0 0.0
2019-Feb-19 07:55N 53°21' W 006°13'0 0.0
2019-Feb-19 07:28N 53°21' W 006°13'0 0.0
2019-Feb-19 06:58N 53°21' W 006°13'0 0.0
2019-Feb-19 06:28N 53°21' W 006°13'0 0.0
2019-Feb-19 06:00N 53°21' W 006°13'0 0.0
2019-Feb-19 05:30N 53°21' W 006°13'0 0.5
2019-Feb-19 05:00N 53°21' W 006°13'5 9.4
2019-Feb-19 04:31N 53°20' W 006°05'815.9
2019-Feb-19 04:01N 53°23' W 005°53'8716.7
2019-Feb-18 22:50N 53°33' W 003°28'516.3
2019-Feb-18 22:31N 53°32' W 003°20'816.1
2019-Feb-18 22:00N 53°31' W 003°06'5 9.7
2019-Feb-18 21:30N 53°27' W 003°01'0 0.9
2019-Feb-18 21:01N 53°27' W 003°01'0 0.0
2019-Feb-18 20:30N 53°27' W 003°01'0 0.0
2019-Feb-18 20:00N 53°27' W 003°01'0 0.0
2019-Feb-18 19:29N 53°27' W 003°01'0 0.0
2019-Feb-18 18:56N 53°27' W 003°01'0 0.0
2019-Feb-18 18:29N 53°27' W 003°01'0 0.0
2019-Feb-18 17:59N 53°27' W 003°01'0 0.0
2019-Feb-18 17:28N 53°27' W 003°01'0 0.1
2019-Feb-18 16:55N 53°27' W 003°01'0 0.9
2019-Feb-18 16:28N 53°27' W 003°01'0 0.2
2019-Feb-18 16:00N 53°27' W 003°01'510.1
2019-Feb-18 15:30N 53°31' W 003°06'714.1
2019-Feb-18 15:00N 53°31' W 003°18'917.0
2019-Feb-18 14:30N 53°31' W 003°33'8617.1
2019-Feb-18 09:30N 53°22' W 005°56'816.3
2019-Feb-18 09:00N 53°21' W 006°09'3 5.2
2019-Feb-18 08:30N 53°21' W 006°13'0 0.0
2019-Feb-18 08:00N 53°21' W 006°13'0 0.0
2019-Feb-18 07:29N 53°21' W 006°13'0 0.0
2019-Feb-18 06:59N 53°21' W 006°13'0 0.0
2019-Feb-18 06:29N 53°21' W 006°13'0 0.0
2019-Feb-18 05:59N 53°21' W 006°13'0 0.0
2019-Feb-18 05:29N 53°21' W 006°13'0 0.7
2019-Feb-18 05:00N 53°21' W 006°13'5 9.8
2019-Feb-18 04:30N 53°20' W 006°04'816.9
2019-Feb-18 04:00N 53°24' W 005°51'8318.3
2019-Feb-17 23:29N 53°33' W 003°34'919.3
2019-Feb-17 23:00N 53°32' W 003°18'816.9
2019-Feb-17 22:30N 53°29' W 003°05'3 5.9
2019-Feb-17 22:01N 53°27' W 003°01'0 0.8
2019-Feb-17 21:29N 53°27' W 003°01'0 0.0
2019-Feb-17 20:59N 53°27' W 003°01'0 0.0
2019-Feb-17 20:29N 53°27' W 003°01'0 0.0
2019-Feb-17 19:59N 53°27' W 003°01'0 0.0
2019-Feb-17 19:28N 53°27' W 003°01'0 0.0
2019-Feb-17 18:58N 53°27' W 003°01'0 0.0
2019-Feb-17 18:28N 53°27' W 003°01'0 0.0
2019-Feb-17 17:58N 53°27' W 003°01'0 0.0
2019-Feb-17 17:31N 53°27' W 003°01'0 0.0
2019-Feb-17 17:00N 53°27' W 003°01'0 0.0
2019-Feb-17 16:30N 53°27' W 003°01'0 0.0
2019-Feb-17 16:00N 53°27' W 003°01'0 0.0
2019-Feb-17 15:27N 53°27' W 003°01'0 0.0
2019-Feb-17 14:59N 53°27' W 003°01'0 0.0
2019-Feb-17 14:29N 53°27' W 003°01'0 0.0
2019-Feb-17 13:59N 53°27' W 003°01'0 0.0
2019-Feb-17 13:29N 53°27' W 003°01'0 0.0
2019-Feb-17 12:59N 53°27' W 003°01'0 0.0
2019-Feb-17 12:25N 53°27' W 003°01'0 0.0
2019-Feb-17 11:58N 53°27' W 003°01'0 0.0
2019-Feb-17 11:28N 53°27' W 003°01'0 0.0
2019-Feb-17 10:58N 53°27' W 003°01'0 0.0
2019-Feb-17 10:30N 53°27' W 003°01'0 0.0
2019-Feb-17 10:00N 53°27' W 003°01'0 0.0
2019-Feb-17 09:30N 53°27' W 003°01'0 0.0
2019-Feb-17 09:00N 53°27' W 003°01'0 0.0
2019-Feb-17 08:30N 53°27' W 003°01'0 0.0
2019-Feb-17 07:59N 53°27' W 003°01'0 0.0
2019-Feb-17 07:26N 53°27' W 003°01'0 0.0
2019-Feb-17 06:59N 53°27' W 003°01'0 0.0
2019-Feb-17 06:29N 53°27' W 003°01'0 0.0
2019-Feb-17 05:59N 53°27' W 003°01'0 0.0
2019-Feb-17 05:30N 53°27' W 003°01'0 0.9
2019-Feb-17 05:00N 53°27' W 003°01'4 7.2
2019-Feb-17 04:31N 53°30' W 003°05'815.9
2019-Feb-17 04:00N 53°31' W 003°18'917.6
2019-Feb-17 03:30N 53°31' W 003°33'8818.2
2019-Feb-16 22:40N 53°21' W 005°60'316.5
2019-Feb-16 22:31N 53°20' W 006°04'510.5
2019-Feb-16 22:00N 53°21' W 006°13'0 0.5
2019-Feb-16 21:28N 53°21' W 006°13'0 0.0
2019-Feb-16 20:58N 53°21' W 006°13'0 0.0
2019-Feb-16 20:28N 53°21' W 006°13'0 0.0
2019-Feb-16 19:58N 53°21' W 006°13'0 0.0
2019-Feb-16 19:28N 53°21' W 006°13'0 0.3
2019-Feb-16 18:58N 53°21' W 006°13'0 0.0
2019-Feb-16 18:28N 53°21' W 006°13'0 0.0
2019-Feb-16 17:58N 53°21' W 006°13'0 0.0
2019-Feb-16 17:28N 53°21' W 006°13'0 0.0
2019-Feb-16 16:58N 53°21' W 006°13'0 0.0
2019-Feb-16 16:30N 53°21' W 006°13'0 0.0
2019-Feb-16 16:00N 53°21' W 006°13'0 0.0
2019-Feb-16 15:30N 53°21' W 006°13'0 0.0
2019-Feb-16 15:00N 53°21' W 006°13'0 0.0
2019-Feb-16 14:29N 53°21' W 006°13'0 0.0
2019-Feb-16 13:59N 53°21' W 006°13'0 0.3
2019-Feb-16 13:29N 53°21' W 006°13'0 0.0
2019-Feb-16 12:59N 53°21' W 006°13'0 0.0
2019-Feb-16 12:29N 53°21' W 006°13'0 0.0
2019-Feb-16 11:58N 53°21' W 006°13'0 0.0
2019-Feb-16 11:28N 53°21' W 006°13'0 0.0
2019-Feb-16 11:00N 53°21' W 006°13'1 2.8
2019-Feb-16 10:30N 53°21' W 006°11'714.9
2019-Feb-16 10:00N 53°22' W 005°58'1018.8
2019-Feb-16 09:29N 53°25' W 005°42'4219.4
2019-Feb-16 07:20N 53°35' W 004°34'3818.5
2019-Feb-16 05:18N 53°33' W 003°31'517.6
2019-Feb-16 05:00N 53°33' W 003°22'817.1
2019-Feb-16 04:30N 53°32' W 003°08'612.6
2019-Feb-16 04:00N 53°27' W 003°01'0 0.1
2019-Feb-16 03:30N 53°27' W 003°01'0 0.8
2019-Feb-16 02:58N 53°27' W 003°01'0 0.0
2019-Feb-16 02:28N 53°27' W 003°01'0 0.0
2019-Feb-16 01:58N 53°27' W 003°01'0 0.0
2019-Feb-16 01:28N 53°27' W 003°01'0 0.0
2019-Feb-16 00:57N 53°27' W 003°01'0 0.0
2019-Feb-16 00:30N 53°27' W 003°01'0 0.0
2019-Feb-16 00:00N 53°27' W 003°01'0 0.0
2019-Feb-15 23:30N 53°27' W 003°01'0 0.8
2019-Feb-15 22:58N 53°27' W 003°01'0 0.4
2019-Feb-15 22:30N 53°27' W 003°01'713.0
2019-Feb-15 22:00N 53°32' W 003°08'917.2
2019-Feb-15 21:30N 53°31' W 003°23'917.5
2019-Feb-15 21:00N 53°31' W 003°38'3417.4
2019-Feb-15 19:03N 53°35' W 004°34'5016.2
2019-Feb-15 15:57N 53°22' W 005°56'715.5
2019-Feb-15 15:30N 53°20' W 006°07'4 7.3
2019-Feb-15 15:00N 53°21' W 006°13'0 0.0
2019-Feb-15 14:30N 53°21' W 006°13'0 0.0
2019-Feb-15 13:59N 53°21' W 006°13'0 0.0
2019-Feb-15 13:29N 53°21' W 006°13'0 0.0
2019-Feb-15 12:59N 53°21' W 006°13'0 0.0
2019-Feb-15 12:29N 53°21' W 006°13'0 0.0
2019-Feb-15 11:58N 53°21' W 006°13'0 0.0
2019-Feb-15 11:28N 53°21' W 006°13'0 0.0
2019-Feb-15 11:00N 53°21' W 006°13'2 3.1
2019-Feb-15 10:30N 53°21' W 006°10'714.5
2019-Feb-15 10:00N 53°22' W 005°58'917.4
2019-Feb-15 09:30N 53°25' W 005°45'2517.4
2019-Feb-15 08:05N 53°31' W 005°05'317.7
2019-Feb-15 07:55N 53°32' W 004°60'819.1
2019-Feb-15 07:30N 53°34' W 004°47'1819.2
2019-Feb-15 06:35N 53°34' W 004°17'519.0
2019-Feb-15 06:21N 53°34' W 004°09'818.8
2019-Feb-15 05:55N 53°34' W 003°56'818.6
2019-Feb-15 05:30N 53°33' W 003°43'918.6
2019-Feb-15 05:01N 53°33' W 003°28'1018.0
2019-Feb-15 04:27N 53°32' W 003°11'716.0
2019-Feb-15 04:00N 53°27' W 003°02'0 0.9
2019-Feb-15 03:30N 53°27' W 003°01'0 0.8
2019-Feb-15 02:59N 53°27' W 003°01'0 0.0
2019-Feb-15 02:29N 53°27' W 003°01'0 0.0
2019-Feb-15 01:58N 53°27' W 003°01'0 0.0
2019-Feb-15 01:28N 53°27' W 003°01'0 0.0
2019-Feb-15 00:58N 53°27' W 003°01'0 0.0
2019-Feb-15 00:28N 53°27' W 003°01'0 0.0
2019-Feb-14 23:58N 53°27' W 003°01'0 0.0
2019-Feb-14 23:30N 53°27' W 003°01'0 0.4
2019-Feb-14 23:00N 53°27' W 003°01'0 0.8
2019-Feb-14 22:30N 53°27' W 003°01'510.9
2019-Feb-14 22:00N 53°31' W 003°07'816.3
2019-Feb-14 21:30N 53°31' W 003°21'714.9
2019-Feb-14 21:00N 53°31' W 003°33'1114.8
2019-Feb-14 20:16N 53°31' W 003°52'615.2
2019-Feb-14 19:51N 53°32' W 004°02'916.6
2019-Feb-14 19:19N 53°33' W 004°17'917.9
2019-Feb-14 18:48N 53°35' W 004°32'1018.1
2019-Feb-14 18:16N 53°34' W 004°48'518.4
2019-Feb-14 18:00N 53°33' W 004°56'1018.8
2019-Feb-14 17:27N 53°30' W 005°13'1218.9
2019-Feb-14 16:49N 53°26' W 005°32'1718.7
2019-Feb-14 15:55N 53°21' W 005°59'614.0
2019-Feb-14 15:30N 53°21' W 006°09'3 4.9
2019-Feb-14 14:58N 53°21' W 006°13'0 0.0
2019-Feb-14 14:28N 53°21' W 006°13'0 0.0
2019-Feb-14 13:58N 53°21' W 006°13'0 0.0
2019-Feb-14 13:28N 53°21' W 006°13'0 0.0
2019-Feb-14 12:58N 53°21' W 006°13'0 0.0
2019-Feb-14 12:30N 53°21' W 006°13'0 0.0
2019-Feb-14 12:00N 53°21' W 006°13'0 0.0
2019-Feb-14 11:30N 53°21' W 006°13'0 0.1
2019-Feb-14 11:00N 53°21' W 006°13'3 5.9
2019-Feb-14 10:30N 53°21' W 006°08'816.8
2019-Feb-14 10:00N 53°23' W 005°55'8620.4
2019-Feb-14 05:46N 53°33' W 003°30'519.1
2019-Feb-14 05:31N 53°32' W 003°22'816.3
2019-Feb-14 05:01N 53°32' W 003°09'714.3
2019-Feb-14 04:30N 53°26' W 003°01'0 0.3
2019-Feb-14 04:01N 53°27' W 003°01'1 0.9
2019-Feb-14 02:58N 53°27' W 003°01'0 0.0
2019-Feb-14 02:27N 53°27' W 003°01'0 0.0
2019-Feb-14 02:00N 53°27' W 003°01'0 0.0
2019-Feb-14 01:30N 53°27' W 003°01'0 0.0
2019-Feb-14 01:00N 53°27' W 003°01'0 0.0
2019-Feb-14 00:30N 53°27' W 003°01'0 0.0
2019-Feb-13 23:59N 53°27' W 003°01'  

Dump ship's entire track history